sensor_id;sensor_type;location;lat;lon;timestamp;pressure;altitude;pressure_sealevel;temperature;humidity
77147;BME280;66121;52.584;9.694;2023-05-10T00:00:25;100419.38;;;13.78;52.70
77147;BME280;66121;52.584;9.694;2023-05-10T00:02:50;100420.56;;;13.77;55.52
77147;BME280;66121;52.584;9.694;2023-05-10T00:05:15;100412.00;;;13.61;55.82
77147;BME280;66121;52.584;9.694;2023-05-10T00:07:41;100406.94;;;13.52;54.14
77147;BME280;66121;52.584;9.694;2023-05-10T00:10:10;100413.31;;;13.45;54.65
77147;BME280;66121;52.584;9.694;2023-05-10T00:12:35;100408.91;;;13.51;55.47
77147;BME280;66121;52.584;9.694;2023-05-10T00:15:01;100401.09;;;13.39;55.62
77147;BME280;66121;52.584;9.694;2023-05-10T00:17:26;100399.13;;;13.36;54.05
77147;BME280;66121;52.584;9.694;2023-05-10T00:19:52;100401.56;;;13.31;54.96
77147;BME280;66121;52.584;9.694;2023-05-10T00:22:17;100403.19;;;13.28;57.15
77147;BME280;66121;52.584;9.694;2023-05-10T00:24:42;100391.41;;;13.14;56.26
77147;BME280;66121;52.584;9.694;2023-05-10T00:27:07;100394.13;;;13.21;54.31
77147;BME280;66121;52.584;9.694;2023-05-10T00:29:33;100390.06;;;13.32;54.86
77147;BME280;66121;52.584;9.694;2023-05-10T00:31:58;100376.75;;;13.17;57.50
77147;BME280;66121;52.584;9.694;2023-05-10T00:34:24;100392.97;;;13.18;56.83
77147;BME280;66121;52.584;9.694;2023-05-10T00:36:49;100377.59;;;13.10;57.12
77147;BME280;66121;52.584;9.694;2023-05-10T00:39:15;100380.00;;;13.08;56.15
77147;BME280;66121;52.584;9.694;2023-05-10T00:41:40;100372.41;;;13.16;55.68
77147;BME280;66121;52.584;9.694;2023-05-10T00:44:05;100372.44;;;13.12;57.10
77147;BME280;66121;52.584;9.694;2023-05-10T00:46:31;100373.63;;;13.11;59.08
77147;BME280;66121;52.584;9.694;2023-05-10T00:48:56;100380.38;;;13.07;58.83
77147;BME280;66121;52.584;9.694;2023-05-10T00:51:22;100379.19;;;13.04;59.12
77147;BME280;66121;52.584;9.694;2023-05-10T00:53:48;100374.44;;;13.05;58.74
77147;BME280;66121;52.584;9.694;2023-05-10T00:56:15;100375.63;;;13.07;59.22
77147;BME280;66121;52.584;9.694;2023-05-10T00:58:40;100379.56;;;13.10;57.60
77147;BME280;66121;52.584;9.694;2023-05-10T01:01:06;100364.22;;;12.98;59.75
77147;BME280;66121;52.584;9.694;2023-05-10T01:03:32;100365.75;;;13.03;60.49
77147;BME280;66121;52.584;9.694;2023-05-10T01:05:58;100365.75;;;13.03;59.64
77147;BME280;66121;52.584;9.694;2023-05-10T01:08:23;100366.13;;;13.08;59.58
77147;BME280;66121;52.584;9.694;2023-05-10T01:10:49;100363.75;;;13.07;59.55
77147;BME280;66121;52.584;9.694;2023-05-10T01:13:23;100354.25;;;13.04;58.42
77147;BME280;66121;52.584;9.694;2023-05-10T01:15:52;100364.28;;;12.87;59.11
77147;BME280;66121;52.584;9.694;2023-05-10T01:18:19;100360.28;;;12.92;57.38
77147;BME280;66121;52.584;9.694;2023-05-10T01:20:48;100348.09;;;12.79;57.49
77147;BME280;66121;52.584;9.694;2023-05-10T01:23:44;100359.97;;;12.83;59.04
77147;BME280;66121;52.584;9.694;2023-05-10T01:26:34;100342.97;;;12.77;59.20
77147;BME280;66121;52.584;9.694;2023-05-10T01:29:13;100347.72;;;12.77;59.47
77147;BME280;66121;52.584;9.694;2023-05-10T01:34:34;100359.59;;;12.74;60.97
77147;BME280;66121;52.584;9.694;2023-05-10T01:37:06;100359.66;;;12.70;63.02
77147;BME280;66121;52.584;9.694;2023-05-10T01:42:06;100357.25;;;12.72;63.27
77147;BME280;66121;52.584;9.694;2023-05-10T01:45:24;100348.16;;;12.75;61.35
77147;BME280;66121;52.584;9.694;2023-05-10T01:47:38;100351.72;;;12.72;61.49
77147;BME280;66121;52.584;9.694;2023-05-10T01:50:10;100354.06;;;12.77;62.60
77147;BME280;66121;52.584;9.694;2023-05-10T01:52:47;100339.03;;;12.75;62.67
77147;BME280;66121;52.584;9.694;2023-05-10T01:55:15;100350.13;;;12.75;62.12
77147;BME280;66121;52.584;9.694;2023-05-10T01:57:44;100348.84;;;12.86;61.17
77147;BME280;66121;52.584;9.694;2023-05-10T02:00:10;100352.41;;;12.87;61.00
77147;BME280;66121;52.584;9.694;2023-05-10T02:02:38;100357.16;;;12.86;61.80
77147;BME280;66121;52.584;9.694;2023-05-10T02:05:05;100348.84;;;12.86;61.94
77147;BME280;66121;52.584;9.694;2023-05-10T02:07:34;100347.72;;;12.80;61.67
77147;BME280;66121;52.584;9.694;2023-05-10T02:10:01;100352.44;;;12.83;61.51
77147;BME280;66121;52.584;9.694;2023-05-10T02:12:28;100353.22;;;12.84;61.74
77147;BME280;66121;52.584;9.694;2023-05-10T02:14:54;100347.72;;;12.80;62.13
77147;BME280;66121;52.584;9.694;2023-05-10T02:17:22;100352.88;;;12.78;61.67
77147;BME280;66121;52.584;9.694;2023-05-10T02:19:49;100348.94;;;12.72;62.51
77147;BME280;66121;52.584;9.694;2023-05-10T02:22:15;100343.03;;;12.67;62.43
77147;BME280;66121;52.584;9.694;2023-05-10T02:24:43;100356.50;;;12.65;62.27
77147;BME280;66121;52.584;9.694;2023-05-10T02:27:09;100357.72;;;12.64;62.75
77147;BME280;66121;52.584;9.694;2023-05-10T02:29:36;100360.06;;;12.65;62.41
77147;BME280;66121;52.584;9.694;2023-05-10T02:32:02;100356.50;;;12.68;61.95
77147;BME280;66121;52.584;9.694;2023-05-10T02:34:28;100347.06;;;12.59;61.90
77147;BME280;66121;52.584;9.694;2023-05-10T02:36:54;100359.69;;;12.63;64.21
77147;BME280;66121;52.584;9.694;2023-05-10T02:39:21;100350.22;;;12.57;63.24
77147;BME280;66121;52.584;9.694;2023-05-10T02:41:48;100353.78;;;12.58;63.08
77147;BME280;66121;52.584;9.694;2023-05-10T02:44:23;100352.19;;;12.57;64.58
77147;BME280;66121;52.584;9.694;2023-05-10T02:46:50;100350.28;;;12.50;64.09
77147;BME280;66121;52.584;9.694;2023-05-10T02:49:16;100350.69;;;12.49;63.40
77147;BME280;66121;52.584;9.694;2023-05-10T02:51:50;100338.03;;;12.51;63.79
77147;BME280;66121;52.584;9.694;2023-05-10T02:54:19;100339.22;;;12.47;63.45
77147;BME280;66121;52.584;9.694;2023-05-10T02:56:52;100338.00;;;12.55;64.13
77147;BME280;66121;52.584;9.694;2023-05-10T02:59:18;100336.44;;;12.47;64.37
77147;BME280;66121;52.584;9.694;2023-05-10T03:01:44;100337.28;;;12.40;64.46
77147;BME280;66121;52.584;9.694;2023-05-10T03:04:09;100329.78;;;12.37;64.25
77147;BME280;66121;52.584;9.694;2023-05-10T03:06:35;100333.72;;;12.40;65.06
77147;BME280;66121;52.584;9.694;2023-05-10T03:09:01;100330.59;;;12.34;64.67
77147;BME280;66121;52.584;9.694;2023-05-10T03:16:46;100336.19;;;12.23;64.99
77147;BME280;66121;52.584;9.694;2023-05-10T03:19:26;100324.75;;;12.14;65.79
77147;BME280;66121;52.584;9.694;2023-05-10T03:21:53;100325.13;;;12.20;65.58
77147;BME280;66121;52.584;9.694;2023-05-10T03:24:23;100329.53;;;12.14;65.62
77147;BME280;66121;52.584;9.694;2023-05-10T03:26:54;100327.91;;;12.20;65.56
77147;BME280;66121;52.584;9.694;2023-05-10T03:29:22;100325.88;;;12.27;67.20
77147;BME280;66121;52.584;9.694;2023-05-10T03:31:48;100328.66;;;12.31;67.67
77147;BME280;66121;52.584;9.694;2023-05-10T03:34:13;100333.34;;;12.38;66.91
77147;BME280;66121;52.584;9.694;2023-05-10T03:36:38;100325.84;;;12.38;67.48
77147;BME280;66121;52.584;9.694;2023-05-10T03:39:03;100329.75;;;12.44;67.32
77147;BME280;66121;52.584;9.694;2023-05-10T03:41:29;100328.94;;;12.47;67.02
77147;BME280;66121;52.584;9.694;2023-05-10T03:43:54;100332.91;;;12.46;67.05
77147;BME280;66121;52.584;9.694;2023-05-10T03:46:19;100333.66;;;12.54;65.77
77147;BME280;66121;52.584;9.694;2023-05-10T03:48:45;100324.56;;;12.53;65.76
77147;BME280;66121;52.584;9.694;2023-05-10T03:51:10;100323.34;;;12.54;66.10
77147;BME280;66121;52.584;9.694;2023-05-10T03:53:35;100321.75;;;12.60;65.89
77147;BME280;66121;52.584;9.694;2023-05-10T03:56:01;100324.50;;;12.64;66.90
77147;BME280;66121;52.584;9.694;2023-05-10T03:58:26;100328.06;;;12.61;64.96
77147;BME280;66121;52.584;9.694;2023-05-10T04:00:51;100327.59;;;12.69;65.17
77147;BME280;66121;52.584;9.694;2023-05-10T04:03:17;100330.38;;;12.69;66.07
77147;BME280;66121;52.584;9.694;2023-05-10T04:05:42;100331.97;;;12.67;64.99
77147;BME280;66121;52.584;9.694;2023-05-10T04:08:08;100324.03;;;12.69;65.16
77147;BME280;66121;52.584;9.694;2023-05-10T04:10:33;100324.84;;;12.69;65.25
77147;BME280;66121;52.584;9.694;2023-05-10T04:12:59;100322.41;;;12.78;64.82
77147;BME280;66121;52.584;9.694;2023-05-10T04:15:24;100323.59;;;12.77;64.69
77147;BME280;66121;52.584;9.694;2023-05-10T04:17:49;100328.25;;;12.91;65.02
77147;BME280;66121;52.584;9.694;2023-05-10T04:20:15;100329.00;;;12.95;63.97
77147;BME280;66121;52.584;9.694;2023-05-10T04:22:41;100326.66;;;12.93;64.73
77147;BME280;66121;52.584;9.694;2023-05-10T04:25:06;100323.88;;;12.93;64.21
77147;BME280;66121;52.584;9.694;2023-05-10T04:27:32;100329.88;;;12.88;64.64
77147;BME280;66121;52.584;9.694;2023-05-10T04:29:57;100321.13;;;12.90;66.44
77147;BME280;66121;52.584;9.694;2023-05-10T04:32:23;100316.97;;;12.64;66.72
77147;BME280;66121;52.584;9.694;2023-05-10T04:34:48;100327.22;;;12.67;67.61
77147;BME280;66121;52.584;9.694;2023-05-10T04:37:14;100329.19;;;12.70;67.51
77147;BME280;66121;52.584;9.694;2023-05-10T04:39:39;100324.94;;;12.55;68.41
77147;BME280;66121;52.584;9.694;2023-05-10T04:42:05;100322.56;;;12.57;69.26
77147;BME280;66121;52.584;9.694;2023-05-10T04:44:31;100326.91;;;12.55;68.44
77147;BME280;66121;52.584;9.694;2023-05-10T04:46:56;100318.97;;;12.60;70.05
77147;BME280;66121;52.584;9.694;2023-05-10T04:49:22;100328.78;;;12.72;69.18
77147;BME280;66121;52.584;9.694;2023-05-10T04:51:47;100328.34;;;12.80;70.06
77147;BME280;66121;52.584;9.694;2023-05-10T04:54:12;100336.25;;;12.78;69.90
77147;BME280;66121;52.584;9.694;2023-05-10T04:56:38;100331.84;;;12.84;71.87
77147;BME280;66121;52.584;9.694;2023-05-10T04:59:03;100337.44;;;12.77;70.05
77147;BME280;66121;52.584;9.694;2023-05-10T05:01:28;100336.69;;;12.73;70.76
77147;BME280;66121;52.584;9.694;2023-05-10T05:03:53;100335.47;;;12.78;71.99
77147;BME280;66121;52.584;9.694;2023-05-10T05:06:19;100339.09;;;12.68;70.26
77147;BME280;66121;52.584;9.694;2023-05-10T05:08:46;100351.31;;;12.74;70.74
77147;BME280;66121;52.584;9.694;2023-05-10T05:11:11;100350.91;;;12.75;70.46
77147;BME280;66121;52.584;9.694;2023-05-10T05:13:36;100344.59;;;12.71;70.95
77147;BME280;66121;52.584;9.694;2023-05-10T05:16:02;100348.94;;;12.72;70.67
77147;BME280;66121;52.584;9.694;2023-05-10T05:18:28;100346.47;;;12.88;70.32
77147;BME280;66121;52.584;9.694;2023-05-10T05:20:53;100365.81;;;12.96;71.14
77147;BME280;66121;52.584;9.694;2023-05-10T05:23:18;100366.25;;;12.90;71.77
77147;BME280;66121;52.584;9.694;2023-05-10T05:25:45;100362.31;;;12.84;71.16
77147;BME280;66121;52.584;9.694;2023-05-10T05:28:11;100362.19;;;13.02;71.86
77147;BME280;66121;52.584;9.694;2023-05-10T05:30:36;100373.22;;;13.09;73.01
77147;BME280;66121;52.584;9.694;2023-05-10T05:33:01;100391.97;;;12.87;71.11
77147;BME280;66121;52.584;9.694;2023-05-10T05:35:27;100378.47;;;12.93;71.67
77147;BME280;66121;52.584;9.694;2023-05-10T05:37:52;100378.53;;;12.86;72.40
77147;BME280;66121;52.584;9.694;2023-05-10T05:40:17;100395.09;;;12.93;73.70
77147;BME280;66121;52.584;9.694;2023-05-10T05:42:42;100405.38;;;12.92;74.84
77147;BME280;66121;52.584;9.694;2023-05-10T05:45:08;100399.03;;;12.96;74.14
77147;BME280;66121;52.584;9.694;2023-05-10T05:47:38;100408.19;;;12.85;73.65
77147;BME280;66121;52.584;9.694;2023-05-10T05:50:03;100409.91;;;12.65;74.85
77147;BME280;66121;52.584;9.694;2023-05-10T05:52:30;100414.25;;;12.59;75.85
77147;BME280;66121;52.584;9.694;2023-05-10T05:54:55;100414.69;;;12.58;77.64
77147;BME280;66121;52.584;9.694;2023-05-10T05:57:20;100409.22;;;12.44;76.86
77147;BME280;66121;52.584;9.694;2023-05-10T05:59:46;100407.25;;;12.41;78.82
77147;BME280;66121;52.584;9.694;2023-05-10T06:02:12;100413.63;;;12.27;79.32
77147;BME280;66121;52.584;9.694;2023-05-10T06:04:37;100411.69;;;12.17;80.50
77147;BME280;66121;52.584;9.694;2023-05-10T06:07:03;100414.47;;;12.13;80.53
77147;BME280;66121;52.584;9.694;2023-05-10T06:09:28;100412.81;;;12.30;81.37
77147;BME280;66121;52.584;9.694;2023-05-10T06:11:54;100421.19;;;12.02;81.82
77147;BME280;66121;52.584;9.694;2023-05-10T06:14:20;100413.28;;;12.14;83.19
77147;BME280;66121;52.584;9.694;2023-05-10T06:16:45;100420.38;;;12.15;85.51
77147;BME280;66121;52.584;9.694;2023-05-10T06:19:11;100418.78;;;12.25;83.81
77147;BME280;66121;52.584;9.694;2023-05-10T06:21:36;100421.13;;;12.30;84.95
77147;BME280;66121;52.584;9.694;2023-05-10T06:24:02;100420.28;;;12.37;83.72
77147;BME280;66121;52.584;9.694;2023-05-10T06:26:27;100418.75;;;12.32;84.44
77147;BME280;66121;52.584;9.694;2023-05-10T06:28:53;100423.13;;;12.26;86.03
77147;BME280;66121;52.584;9.694;2023-05-10T06:31:18;100419.03;;;12.55;86.09
77147;BME280;66121;52.584;9.694;2023-05-10T06:33:43;100421.41;;;12.60;84.82
77147;BME280;66121;52.584;9.694;2023-05-10T06:36:09;100425.81;;;12.44;84.64
77147;BME280;66121;52.584;9.694;2023-05-10T06:38:34;100420.69;;;12.42;86.09
77147;BME280;66121;52.584;9.694;2023-05-10T06:40:59;100425.06;;;12.33;85.46
77147;BME280;66121;52.584;9.694;2023-05-10T06:43:25;100416.72;;;12.43;86.90
77147;BME280;66121;52.584;9.694;2023-05-10T06:45:51;100428.06;;;12.70;87.37
77147;BME280;66121;52.584;9.694;2023-05-10T06:48:16;100422.91;;;12.72;85.88
77147;BME280;66121;52.584;9.694;2023-05-10T06:50:42;100423.59;;;12.86;85.85
77147;BME280;66121;52.584;9.694;2023-05-10T06:53:07;100421.25;;;12.88;86.56
77147;BME280;66121;52.584;9.694;2023-05-10T06:55:32;100426.38;;;12.86;86.44
77147;BME280;66121;52.584;9.694;2023-05-10T06:57:58;100430.72;;;12.87;88.74
77147;BME280;66121;52.584;9.694;2023-05-10T07:00:23;100439.84;;;12.84;86.97
77147;BME280;66121;52.584;9.694;2023-05-10T07:02:49;100437.91;;;12.74;89.42
77147;BME280;66121;52.584;9.694;2023-05-10T07:05:14;100448.94;;;12.81;88.44
77147;BME280;66121;52.584;9.694;2023-05-10T07:07:40;100449.75;;;12.82;89.04
77147;BME280;66121;52.584;9.694;2023-05-10T07:10:06;100456.53;;;12.70;88.85
77147;BME280;66121;52.584;9.694;2023-05-10T07:12:32;100453.38;;;12.68;89.82
77147;BME280;66121;52.584;9.694;2023-05-10T07:14:57;100459.34;;;12.60;88.88
77147;BME280;66121;52.584;9.694;2023-05-10T07:17:22;100448.31;;;12.53;90.36
77147;BME280;66121;52.584;9.694;2023-05-10T07:19:47;100452.28;;;12.45;90.35
77147;BME280;66121;52.584;9.694;2023-05-10T07:22:14;100444.44;;;12.33;91.41
77147;BME280;66121;52.584;9.694;2023-05-10T07:24:40;100447.56;;;12.42;92.69
77147;BME280;66121;52.584;9.694;2023-05-10T07:27:05;100462.91;;;12.57;91.99
77147;BME280;66121;52.584;9.694;2023-05-10T07:29:30;100460.97;;;12.54;91.64
77147;BME280;66121;52.584;9.694;2023-05-10T07:31:56;100462.59;;;12.37;93.16
77147;BME280;66121;52.584;9.694;2023-05-10T07:34:21;100473.63;;;12.51;93.07
77147;BME280;66121;52.584;9.694;2023-05-10T07:36:47;100466.44;;;12.68;94.05
77147;BME280;66121;52.584;9.694;2023-05-10T07:39:12;100469.53;;;12.77;94.11
77147;BME280;66121;52.584;9.694;2023-05-10T07:41:37;100475.03;;;12.87;93.14
77147;BME280;66121;52.584;9.694;2023-05-10T07:44:04;100475.00;;;12.98;93.77
77147;BME280;66121;52.584;9.694;2023-05-10T07:46:29;100482.88;;;13.07;93.35
77147;BME280;66121;52.584;9.694;2023-05-10T07:48:55;100486.00;;;13.12;92.65
77147;BME280;66121;52.584;9.694;2023-05-10T07:51:20;100489.94;;;13.18;95.04
77147;BME280;66121;52.584;9.694;2023-05-10T07:53:46;100494.25;;;13.19;95.62
77147;BME280;66121;52.584;9.694;2023-05-10T07:56:25;100493.13;;;13.13;95.05
77147;BME280;66121;52.584;9.694;2023-05-10T07:58:52;100494.75;;;13.07;96.96
77147;BME280;66121;52.584;9.694;2023-05-10T08:01:18;100493.47;;;13.19;96.14
77147;BME280;66121;52.584;9.694;2023-05-10T08:03:43;100496.59;;;13.24;95.86
77147;BME280;66121;52.584;9.694;2023-05-10T08:06:08;100493.03;;;13.27;97.19
77147;BME280;66121;52.584;9.694;2023-05-10T08:08:34;100502.53;;;13.26;97.43
77147;BME280;66121;52.584;9.694;2023-05-10T08:10:59;100516.00;;;13.28;96.81
77147;BME280;66121;52.584;9.694;2023-05-10T08:13:24;100524.25;;;13.38;97.39
77147;BME280;66121;52.584;9.694;2023-05-10T08:15:50;100516.69;;;13.46;96.62
77147;BME280;66121;52.584;9.694;2023-05-10T08:18:17;100528.41;;;13.64;97.24
77147;BME280;66121;52.584;9.694;2023-05-10T08:20:43;100531.78;;;13.89;96.83
77147;BME280;66121;52.584;9.694;2023-05-10T08:23:08;100529.81;;;13.86;96.82
77147;BME280;66121;52.584;9.694;2023-05-10T08:25:33;100531.38;;;13.91;96.59
77147;BME280;66121;52.584;9.694;2023-05-10T08:27:59;100539.16;;;14.06;96.48
77147;BME280;66121;52.584;9.694;2023-05-10T08:30:24;100538.13;;;13.86;95.66
77147;BME280;66121;52.584;9.694;2023-05-10T08:32:49;100542.06;;;13.92;96.16
77147;BME280;66121;52.584;9.694;2023-05-10T08:35:15;100542.91;;;13.86;96.31
77147;BME280;66121;52.584;9.694;2023-05-10T08:37:40;100546.88;;;13.85;96.29
77147;BME280;66121;52.584;9.694;2023-05-10T08:40:06;100551.09;;;14.03;96.30
77147;BME280;66121;52.584;9.694;2023-05-10T08:42:34;100556.44;;;14.21;95.44
77147;BME280;66121;52.584;9.694;2023-05-10T08:45:02;100558.41;;;14.24;95.97
77147;BME280;66121;52.584;9.694;2023-05-10T08:47:29;100549.59;;;14.36;95.31
77147;BME280;66121;52.584;9.694;2023-05-10T08:49:54;100551.59;;;14.36;95.60
77147;BME280;66121;52.584;9.694;2023-05-10T08:52:21;100561.75;;;14.53;95.13
77147;BME280;66121;52.584;9.694;2023-05-10T08:54:49;100559.78;;;14.50;94.81
77147;BME280;66121;52.584;9.694;2023-05-10T08:57:14;100566.84;;;14.58;95.29
77147;BME280;66121;52.584;9.694;2023-05-10T08:59:40;100566.22;;;14.40;95.63
77147;BME280;66121;52.584;9.694;2023-05-10T09:02:06;100560.13;;;14.55;96.36
77147;BME280;66121;52.584;9.694;2023-05-10T09:04:31;100572.97;;;14.76;96.00
77147;BME280;66121;52.584;9.694;2023-05-10T09:06:56;100572.47;;;14.84;94.69
77147;BME280;66121;52.584;9.694;2023-05-10T09:09:23;100581.44;;;14.99;93.95
77147;BME280;66121;52.584;9.694;2023-05-10T09:11:49;100588.97;;;14.99;93.78
77147;BME280;66121;52.584;9.694;2023-05-10T09:14:14;100582.97;;;15.04;93.51
77147;BME280;66121;52.584;9.694;2023-05-10T09:16:40;100587.19;;;14.81;93.83
77147;BME280;66121;52.584;9.694;2023-05-10T09:19:06;100587.88;;;14.93;94.18
77147;BME280;66121;52.584;9.694;2023-05-10T09:21:34;100597.50;;;14.81;95.16
77147;BME280;66121;52.584;9.694;2023-05-10T09:24:06;100596.59;;;14.57;94.35
77147;BME280;66121;52.584;9.694;2023-05-10T09:26:31;100602.75;;;14.38;95.39
77147;BME280;66121;52.584;9.694;2023-05-10T09:28:59;100611.47;;;14.37;95.36
77147;BME280;66121;52.584;9.694;2023-05-10T09:31:43;100604.19;;;14.50;95.36
77147;BME280;66121;52.584;9.694;2023-05-10T09:34:10;100610.25;;;14.78;95.14
77147;BME280;66121;52.584;9.694;2023-05-10T09:36:35;100609.28;;;14.96;93.38
77147;BME280;66121;52.584;9.694;2023-05-10T09:39:00;100607.88;;;15.11;94.45
77147;BME280;66121;52.584;9.694;2023-05-10T09:41:25;100617.81;;;15.45;92.83
77147;BME280;66121;52.584;9.694;2023-05-10T09:43:55;100614.13;;;15.52;93.71
77147;BME280;66121;52.584;9.694;2023-05-10T09:46:22;100620.66;;;15.69;92.19
77147;BME280;66121;52.584;9.694;2023-05-10T09:48:48;100622.41;;;15.56;92.34
77147;BME280;66121;52.584;9.694;2023-05-10T09:51:20;100611.06;;;15.43;89.89
77147;BME280;66121;52.584;9.694;2023-05-10T09:53:46;100624.91;;;15.50;90.77
77147;BME280;66121;52.584;9.694;2023-05-10T09:56:12;100622.66;;;15.38;90.83
77147;BME280;66121;52.584;9.694;2023-05-10T09:58:37;100624.31;;;15.32;91.43
77147;BME280;66121;52.584;9.694;2023-05-10T10:01:11;100637.94;;;15.23;91.02
77147;BME280;66121;52.584;9.694;2023-05-10T10:03:41;100634.75;;;15.21;91.57
77147;BME280;66121;52.584;9.694;2023-05-10T10:06:07;100632.75;;;15.25;91.79
77147;BME280;66121;52.584;9.694;2023-05-10T10:08:34;100645.81;;;15.58;92.42
77147;BME280;66121;52.584;9.694;2023-05-10T10:10:59;100635.59;;;15.52;92.29
77147;BME280;66121;52.584;9.694;2023-05-10T10:13:24;100649.47;;;15.55;89.16
77147;BME280;66121;52.584;9.694;2023-05-10T10:15:51;100642.19;;;15.65;90.48
77147;BME280;66121;52.584;9.694;2023-05-10T10:18:17;100634.41;;;15.53;90.65
77147;BME280;66121;52.584;9.694;2023-05-10T10:20:42;100648.22;;;15.60;88.07
77147;BME280;66121;52.584;9.694;2023-05-10T10:23:08;100648.25;;;15.56;89.61
77147;BME280;66121;52.584;9.694;2023-05-10T10:25:33;100654.50;;;15.64;88.08
77147;BME280;66121;52.584;9.694;2023-05-10T10:28:16;100654.72;;;15.76;91.24
77147;BME280;66121;52.584;9.694;2023-05-10T10:30:48;100654.22;;;15.85;89.99
77147;BME280;66121;52.584;9.694;2023-05-10T10:36:15;100657.25;;;15.94;88.45
77147;BME280;66121;52.584;9.694;2023-05-10T10:41:32;100657.19;;;15.71;88.92
77147;BME280;66121;52.584;9.694;2023-05-10T10:49:50;100665.19;;;15.35;91.45
77147;BME280;66121;52.584;9.694;2023-05-10T10:52:36;100669.78;;;15.48;91.40
77147;BME280;66121;52.584;9.694;2023-05-10T10:55:11;100668.03;;;15.62;88.86
77147;BME280;66121;52.584;9.694;2023-05-10T11:03:19;100661.25;;;16.20;90.10
77147;BME280;66121;52.584;9.694;2023-05-10T11:05:47;100666.25;;;16.28;87.86
77147;BME280;66121;52.584;9.694;2023-05-10T11:08:39;100660.94;;;16.37;87.41
77147;BME280;66121;52.584;9.694;2023-05-10T11:11:06;100665.47;;;16.54;88.84
77147;BME280;66121;52.584;9.694;2023-05-10T11:13:46;100670.44;;;16.66;85.88
77147;BME280;66121;52.584;9.694;2023-05-10T11:16:18;100665.91;;;16.96;86.84
77147;BME280;66121;52.584;9.694;2023-05-10T11:19:04;100666.56;;;17.03;83.26
77147;BME280;66121;52.584;9.694;2023-05-10T11:21:30;100667.66;;;17.09;84.92
77147;BME280;66121;52.584;9.694;2023-05-10T11:23:57;100661.13;;;17.16;80.15
77147;BME280;66121;52.584;9.694;2023-05-10T11:26:24;100665.69;;;17.06;83.09
77147;BME280;66121;52.584;9.694;2023-05-10T11:28:53;100659.63;;;17.31;83.29
77147;BME280;66121;52.584;9.694;2023-05-10T11:31:20;100663.50;;;17.37;81.09
77147;BME280;66121;52.584;9.694;2023-05-10T11:33:54;100669.56;;;17.71;81.94
77147;BME280;66121;52.584;9.694;2023-05-10T11:38:45;100664.56;;;17.82;79.15
77147;BME280;66121;52.584;9.694;2023-05-10T11:41:12;100667.53;;;18.08;76.36
77147;BME280;66121;52.584;9.694;2023-05-10T11:43:41;100672.63;;;18.45;74.50
77147;BME280;66121;52.584;9.694;2023-05-10T11:46:08;100671.25;;;18.69;75.70
77147;BME280;66121;52.584;9.694;2023-05-10T11:48:34;100676.13;;;18.81;77.74
77147;BME280;66121;52.584;9.694;2023-05-10T11:51:01;100677.13;;;18.87;75.41
77147;BME280;66121;52.584;9.694;2023-05-10T11:53:29;100665.31;;;18.67;73.06
77147;BME280;66121;52.584;9.694;2023-05-10T11:55:55;100668.50;;;18.01;72.36
77147;BME280;66121;52.584;9.694;2023-05-10T11:58:20;100678.56;;;18.15;74.97
77147;BME280;66121;52.584;9.694;2023-05-10T12:00:46;100685.72;;;18.32;74.99
77147;BME280;66121;52.584;9.694;2023-05-10T12:03:12;100683.38;;;19.07;70.59
77147;BME280;66121;52.584;9.694;2023-05-10T12:05:37;100677.63;;;19.27;71.70
77147;BME280;66121;52.584;9.694;2023-05-10T12:08:19;100682.09;;;19.24;71.83
77147;BME280;66121;52.584;9.694;2023-05-10T12:10:45;100681.44;;;19.20;69.98
77147;BME280;66121;52.584;9.694;2023-05-10T12:13:11;100689.22;;;18.84;70.45
77147;BME280;66121;52.584;9.694;2023-05-10T12:15:38;100683.97;;;18.86;69.42
77147;BME280;66121;52.584;9.694;2023-05-10T12:18:03;100694.50;;;19.11;69.21
77147;BME280;66121;52.584;9.694;2023-05-10T12:20:30;100686.28;;;19.04;68.29
77147;BME280;66121;52.584;9.694;2023-05-10T12:22:57;100686.44;;;19.13;70.50
77147;BME280;66121;52.584;9.694;2023-05-10T12:25:24;100682.50;;;18.65;68.16
77147;BME280;66121;52.584;9.694;2023-05-10T12:27:56;100687.91;;;18.89;69.89
77147;BME280;66121;52.584;9.694;2023-05-10T12:30:25;100682.84;;;18.84;66.93
77147;BME280;66121;52.584;9.694;2023-05-10T12:32:51;100683.94;;;19.72;69.11
77147;BME280;66121;52.584;9.694;2023-05-10T12:35:17;100694.97;;;20.05;65.65
77147;BME280;66121;52.584;9.694;2023-05-10T12:37:47;100690.44;;;19.82;67.34
77147;BME280;66121;52.584;9.694;2023-05-10T12:40:12;100691.66;;;19.56;70.42
77147;BME280;66121;52.584;9.694;2023-05-10T12:42:38;100699.63;;;19.12;67.90
77147;BME280;66121;52.584;9.694;2023-05-10T12:45:05;100689.38;;;18.77;69.45
77147;BME280;66121;52.584;9.694;2023-05-10T12:47:31;100703.22;;;18.52;70.79
77147;BME280;66121;52.584;9.694;2023-05-10T12:49:56;100718.44;;;18.15;72.98
77147;BME280;66121;52.584;9.694;2023-05-10T12:52:22;100741.41;;;17.05;74.65
77147;BME280;66121;52.584;9.694;2023-05-10T12:54:47;100746.91;;;16.35;77.97
77147;BME280;66121;52.584;9.694;2023-05-10T12:57:14;100744.47;;;16.10;80.38
77147;BME280;66121;52.584;9.694;2023-05-10T12:59:39;100755.97;;;15.52;83.25
77147;BME280;66121;52.584;9.694;2023-05-10T13:02:05;100754.88;;;15.42;84.83
77147;BME280;66121;52.584;9.694;2023-05-10T13:04:31;100752.66;;;15.23;86.64
77147;BME280;66121;52.584;9.694;2023-05-10T13:06:56;100751.75;;;15.37;85.74
77147;BME280;66121;52.584;9.694;2023-05-10T13:09:27;100762.41;;;15.42;86.61
77147;BME280;66121;52.584;9.694;2023-05-10T13:11:54;100756.13;;;15.38;85.11
77147;BME280;66121;52.584;9.694;2023-05-10T13:14:19;100766.59;;;15.61;85.72
77147;BME280;66121;52.584;9.694;2023-05-10T13:16:46;100767.47;;;15.54;86.34
77147;BME280;66121;52.584;9.694;2023-05-10T13:19:11;100768.66;;;15.53;86.68